Time;durP1;ratioP1;P1;durP2;ratioP2;P2;SDS_P1;SDS_P2;PMS_P1;PMS_P2;Temp;Humidity;BMP_temperature;BMP_pressure;BME280_temperature;BME280_humidity;BME280_pressure;Samples;Min_cycle;Max_cycle;Signal;HPM_P1;HPM_P2
2022/09/18 00:00:43;;;;;;;29.15;3.83;;;9.20;99.90;;;;;;5049616;28;20016;-48
2022/09/18 00:03:09;;;;;;;23.95;4.13;;;9.20;99.90;;;;;;5048549;28;20028;-47
2022/09/18 00:05:35;;;;;;;38.38;4.35;;;9.20;99.90;;;;;;5049373;28;20029;-48
2022/09/18 00:08:01;;;;;;;19.50;3.03;;;9.10;99.90;;;;;;5047534;28;20108;-47
2022/09/18 00:10:27;;;;;;;28.65;3.85;;;9.10;99.90;;;;;;5049263;28;20132;-47
2022/09/18 00:12:52;;;;;;;24.58;4.32;;;9.20;99.90;;;;;;5047352;28;20025;-48
2022/09/18 00:15:17;;;;;;;36.72;4.22;;;9.10;99.90;;;;;;5047825;28;20033;-48
2022/09/18 00:17:43;;;;;;;22.70;3.25;;;9.10;99.90;;;;;;5049054;28;20025;-48
2022/09/18 00:20:08;;;;;;;30.50;4.25;;;9.10;99.90;;;;;;5049336;28;20037;-49
2022/09/18 00:22:34;;;;;;;19.75;5.03;;;9.00;99.90;;;;;;5045767;28;20081;-47
2022/09/18 00:25:00;;;;;;;20.55;4.13;;;9.00;99.90;;;;;;5039384;28;20052;-49
2022/09/18 00:27:25;;;;;;;30.48;5.18;;;9.00;99.90;;;;;;5048765;28;20028;-48
2022/09/18 00:29:51;;;;;;;27.90;4.63;;;9.00;99.90;;;;;;5048809;28;20104;-48
2022/09/18 00:32:16;;;;;;;24.58;4.40;;;9.00;99.90;;;;;;5047361;28;20130;-48
2022/09/18 00:34:42;;;;;;;37.88;4.72;;;8.90;99.90;;;;;;5048692;28;20025;-47
2022/09/18 00:37:07;;;;;;;23.63;3.50;;;8.90;99.90;;;;;;5048712;28;20040;-48
2022/09/18 00:39:33;;;;;;;26.48;4.55;;;8.90;99.90;;;;;;5048685;28;20558;-48
2022/09/18 00:41:59;;;;;;;21.92;3.67;;;8.90;99.90;;;;;;5049212;28;20017;-50
2022/09/18 00:44:42;;;;;;;24.17;3.90;;;8.90;99.90;;;;;;5046040;28;20031;-47
2022/09/18 00:47:10;;;;;;;36.60;4.45;;;8.90;99.90;;;;;;5048642;28;20107;-48
2022/09/18 00:49:44;;;;;;;26.15;4.25;;;8.90;99.90;;;;;;5048816;28;20017;-48
2022/09/18 00:52:12;;;;;;;20.35;4.18;;;8.90;99.90;;;;;;5046853;28;20084;-47
2022/09/18 00:54:40;;;;;;;33.95;3.97;;;9.00;99.90;;;;;;5039421;28;20025;-47
2022/09/18 00:57:13;;;;;;;26.42;4.75;;;8.90;99.90;;;;;;5048165;28;20700;-47
2022/09/18 00:59:41;;;;;;;24.45;3.65;;;9.00;99.90;;;;;;5048434;28;20029;-48
2022/09/18 01:02:07;;;;;;;28.83;3.65;;;9.00;99.90;;;;;;5048555;28;20532;-48
2022/09/18 01:04:32;;;;;;;32.45;4.25;;;8.90;99.90;;;;;;5048055;28;20037;-48
2022/09/18 01:07:34;;;;;;;21.50;4.78;;;9.00;99.90;;;;;;5044026;28;20052;-47
2022/09/18 01:10:38;;;;;;;18.40;3.22;;;9.00;99.90;;;;;;5033218;28;20101;-48
2022/09/18 01:13:25;;;;;;;16.50;2.92;;;9.10;99.90;;;;;;5028004;28;20499;-48
2022/09/18 01:16:01;;;;;;;18.75;3.10;;;9.10;99.90;;;;;;5028314;28;20031;-49
2022/09/18 01:18:57;;;;;;;25.92;3.38;;;9.10;99.90;;;;;;5028265;28;20056;-48
2022/09/18 01:21:39;;;;;;;25.55;3.58;;;9.10;99.90;;;;;;5028630;28;20519;-48
2022/09/18 01:24:39;;;;;;;24.88;3.92;;;9.10;99.90;;;;;;5027530;28;20033;-48
2022/09/18 01:27:08;;;;;;;12.98;3.40;;;9.10;99.90;;;;;;5028165;28;20021;-51
2022/09/18 01:29:54;;;;;;;19.25;2.60;;;9.10;99.90;;;;;;5039844;28;20051;-48
2022/09/18 01:32:36;;;;;;;19.48;3.25;;;9.10;99.90;;;;;;5047704;28;20403;-50
2022/09/18 01:35:30;;;;;;;18.20;3.15;;;9.10;99.90;;;;;;5048125;28;20029;-49
2022/09/18 01:38:08;;;;;;;15.63;2.60;;;9.10;99.90;;;;;;5047885;28;20494;-48
2022/09/18 01:40:46;;;;;;;17.30;3.35;;;9.00;99.90;;;;;;5048095;28;20028;-48
2022/09/18 01:43:15;;;;;;;16.15;3.10;;;9.00;99.90;;;;;;5048111;28;20040;-48
2022/09/18 01:45:45;;;;;;;25.88;2.60;;;9.00;99.90;;;;;;5048284;28;20599;-47
2022/09/18 01:48:18;;;;;;;16.65;2.47;;;8.90;99.90;;;;;;5048103;28;20029;-47
2022/09/18 01:50:50;;;;;;;17.00;2.92;;;8.90;99.90;;;;;;5047987;28;20033;-48
2022/09/18 01:53:23;;;;;;;19.45;3.65;;;8.90;99.90;;;;;;5047252;28;20029;-48
2022/09/18 01:55:55;;;;;;;18.33;3.22;;;8.90;99.90;;;;;;5051007;28;20036;-47
2022/09/18 01:58:23;;;;;;;16.75;2.78;;;9.00;99.90;;;;;;5042964;28;20010;-47
2022/09/18 02:00:56;;;;;;;21.92;2.85;;;9.00;99.90;;;;;;5046773;28;20029;-48
2022/09/18 02:03:28;;;;;;;12.88;3.05;;;9.10;99.90;;;;;;5050030;28;20029;-48
2022/09/18 02:06:16;;;;;;;21.08;3.65;;;9.10;99.90;;;;;;5051659;28;20029;-48
2022/09/18 02:08:47;;;;;;;13.15;2.92;;;9.10;99.90;;;;;;5051433;28;20086;-49
2022/09/18 02:11:15;;;;;;;18.83;3.10;;;9.10;99.90;;;;;;5051353;28;20494;-51
2022/09/18 02:14:04;;;;;;;25.23;3.65;;;9.20;99.90;;;;;;5049183;28;20045;-49
2022/09/18 02:16:43;;;;;;;13.55;2.80;;;9.10;99.90;;;;;;5051435;28;20488;-47
2022/09/18 02:19:24;;;;;;;19.20;3.10;;;9.10;99.90;;;;;;5051400;28;20033;-50
2022/09/18 02:21:53;;;;;;;17.55;2.85;;;9.10;99.90;;;;;;5051059;28;20151;-50
2022/09/18 02:24:21;;;;;;;18.15;2.90;;;9.20;99.90;;;;;;5050735;28;20163;-48
2022/09/18 02:26:50;;;;;;;20.00;4.10;;;9.10;99.90;;;;;;5047602;28;20083;-48
2022/09/18 02:29:17;;;;;;;17.27;4.30;;;9.20;99.90;;;;;;5041893;28;20025;-48
2022/09/18 02:31:43;;;;;;;13.65;2.88;;;9.20;99.90;;;;;;5051205;28;20017;-49
2022/09/18 02:34:11;;;;;;;11.10;3.30;;;9.20;99.90;;;;;;5049253;28;20112;-49
2022/09/18 02:37:02;;;;;;;12.82;3.42;;;9.20;99.90;;;;;;5050703;28;20029;-47
2022/09/18 02:39:41;;;;;;;11.68;2.67;;;9.20;99.90;;;;;;5050838;28;20018;-48
2022/09/18 02:42:31;;;;;;;15.13;4.28;;;9.20;99.90;;;;;;5051113;28;20070;-48
2022/09/18 02:45:08;;;;;;;13.63;2.08;;;9.20;99.90;;;;;;5050825;28;20078;-48
2022/09/18 02:47:57;;;;;;;9.32;2.95;;;9.20;99.90;;;;;;5050935;28;20247;-48
2022/09/18 02:50:50;;;;;;;18.75;3.20;;;9.20;99.90;;;;;;5050900;28;20646;-50
2022/09/18 02:53:33;;;;;;;14.23;3.08;;;9.20;99.90;;;;;;5040710;28;20083;-48
2022/09/18 02:56:11;;;;;;;13.25;3.35;;;9.30;99.90;;;;;;5042790;28;20020;-48
2022/09/18 02:58:53;;;;;;;8.70;2.45;;;9.20;99.90;;;;;;5030432;28;20026;-50
2022/09/18 03:01:21;;;;;;;18.25;3.00;;;9.20;99.90;;;;;;5021505;28;20184;-48
2022/09/18 03:03:47;;;;;;;16.80;2.75;;;9.20;99.90;;;;;;5020464;28;20387;-47
2022/09/18 03:06:13;;;;;;;11.73;2.58;;;9.20;99.90;;;;;;5019816;28;20029;-48
2022/09/18 03:08:38;;;;;;;16.98;3.17;;;9.20;99.90;;;;;;5019146;28;20025;-46
2022/09/18 03:11:04;;;;;;;7.60;2.45;;;9.20;99.90;;;;;;5018720;28;20580;-47
2022/09/18 03:13:30;;;;;;;18.60;2.65;;;9.20;99.90;;;;;;5018351;28;20017;-48
2022/09/18 03:15:55;;;;;;;14.25;2.78;;;9.10;99.90;;;;;;5018162;28;20018;-48
2022/09/18 03:18:21;;;;;;;12.65;2.60;;;9.10;99.90;;;;;;5021095;28;20017;-47
2022/09/18 03:20:46;;;;;;;18.77;4.40;;;9.10;99.90;;;;;;5020341;28;20025;-46
2022/09/18 03:23:12;;;;;;;16.80;2.78;;;9.10;99.90;;;;;;5019699;28;20032;-47
2022/09/18 03:25:37;;;;;;;16.52;3.00;;;9.10;99.90;;;;;;5021102;28;20033;-47
2022/09/18 03:28:03;;;;;;;15.63;3.38;;;9.10;99.90;;;;;;5020772;28;20113;-46
2022/09/18 03:30:29;;;;;;;14.05;2.78;;;9.20;99.90;;;;;;5018797;28;20452;-46
2022/09/18 03:32:55;;;;;;;10.57;1.90;;;9.20;99.90;;;;;;5019356;28;20028;-46
2022/09/18 03:35:20;;;;;;;13.13;2.85;;;9.20;99.90;;;;;;5019988;28;20545;-47
2022/09/18 03:37:46;;;;;;;16.75;3.00;;;9.20;99.90;;;;;;5017157;28;20018;-46
2022/09/18 03:40:11;;;;;;;21.05;3.72;;;9.30;99.90;;;;;;5018993;28;20497;-46
2022/09/18 03:42:37;;;;;;;24.02;3.17;;;9.30;99.90;;;;;;5019063;28;20034;-47
2022/09/18 03:45:03;;;;;;;20.73;3.25;;;9.20;99.90;;;;;;5017727;28;20064;-47
2022/09/18 03:47:29;;;;;;;19.02;2.80;;;9.30;99.90;;;;;;5019000;28;20310;-47
2022/09/18 03:49:54;;;;;;;17.88;3.22;;;9.20;99.90;;;;;;5020463;28;20424;-47
2022/09/18 03:52:20;;;;;;;17.52;2.72;;;9.20;99.90;;;;;;5019344;28;20064;-47
2022/09/18 03:54:46;;;;;;;13.23;2.60;;;9.10;99.90;;;;;;5027937;28;20033;-47
2022/09/18 03:57:11;;;;;;;16.98;3.00;;;9.10;99.90;;;;;;5019742;28;20018;-47
2022/09/18 03:59:37;;;;;;;8.68;2.92;;;9.10;99.90;;;;;;5016548;28;20550;-49
2022/09/18 04:02:03;;;;;;;12.48;2.38;;;9.10;99.90;;;;;;5025690;28;20495;-48
2022/09/18 04:04:28;;;;;;;12.48;2.25;;;9.10;99.90;;;;;;5029057;28;20029;-48
2022/09/18 04:06:54;;;;;;;12.55;2.22;;;9.00;99.90;;;;;;5028462;28;20415;-48
2022/09/18 04:09:19;;;;;;;21.30;2.97;;;9.00;99.90;;;;;;5029477;28;20108;-48
2022/09/18 04:11:45;;;;;;;22.20;2.83;;;9.00;99.90;;;;;;5029399;28;20032;-47
2022/09/18 04:14:10;;;;;;;9.65;2.15;;;9.00;99.90;;;;;;5028632;28;20295;-47
2022/09/18 04:16:36;;;;;;;16.00;3.15;;;8.90;99.90;;;;;;5029102;28;20022;-47
2022/09/18 04:19:02;;;;;;;6.15;1.85;;;8.90;99.90;;;;;;5026751;28;20065;-48
2022/09/18 04:21:27;;;;;;;13.73;2.65;;;8.90;99.90;;;;;;5029534;28;20026;-47
2022/09/18 04:23:55;;;;;;;11.32;1.90;;;8.90;99.90;;;;;;5035535;28;20025;-48
2022/09/18 04:26:20;;;;;;;14.38;2.15;;;8.90;99.90;;;;;;5040309;28;20187;-47
2022/09/18 04:28:46;;;;;;;12.70;2.10;;;8.90;99.90;;;;;;5048974;28;20104;-48
2022/09/18 04:31:11;;;;;;;9.40;2.30;;;9.00;99.90;;;;;;5049051;28;20032;-47
2022/09/18 04:33:37;;;;;;;17.05;2.78;;;9.00;99.90;;;;;;5048466;28;20025;-48
2022/09/18 04:36:02;;;;;;;10.02;2.30;;;9.00;99.90;;;;;;5048757;28;20041;-48
2022/09/18 04:38:28;;;;;;;15.57;2.78;;;9.00;99.90;;;;;;5048390;28;20047;-48
2022/09/18 04:40:58;;;;;;;11.02;2.22;;;8.90;99.90;;;;;;5047280;28;20025;-49
2022/09/18 04:43:25;;;;;;;7.47;2.05;;;8.90;99.90;;;;;;5048816;28;20021;-47
2022/09/18 04:45:51;;;;;;;15.65;2.08;;;8.90;99.90;;;;;;5048866;28;20083;-48
2022/09/18 04:48:17;;;;;;;8.85;2.10;;;8.80;99.90;;;;;;5048769;28;20465;-47
2022/09/18 04:50:44;;;;;;;11.27;2.10;;;8.80;99.90;;;;;;5048977;28;20449;-48
2022/09/18 04:53:10;;;;;;;13.45;2.47;;;8.80;99.90;;;;;;5040743;28;20403;-47
2022/09/18 04:55:35;;;;;;;11.27;2.28;;;8.80;99.90;;;;;;5040340;28;20013;-47
2022/09/18 04:58:00;;;;;;;9.48;1.75;;;8.80;99.90;;;;;;5049089;28;20075;-47
2022/09/18 05:00:27;;;;;;;11.52;2.10;;;8.80;99.90;;;;;;5048597;28;20032;-47
2022/09/18 05:02:53;;;;;;;7.32;2.13;;;8.80;99.90;;;;;;5048563;28;20493;-47
2022/09/18 05:05:19;;;;;;;14.57;2.20;;;8.70;99.90;;;;;;5048586;28;20053;-47
2022/09/18 05:07:44;;;;;;;14.00;3.25;;;8.80;99.90;;;;;;5030336;28;20037;-47
2022/09/18 05:10:10;;;;;;;7.13;1.90;;;8.80;99.90;;;;;;5026414;28;20029;-47
2022/09/18 05:12:38;;;;;;;11.68;1.98;;;8.80;99.90;;;;;;5027592;28;20103;-46
2022/09/18 05:15:04;;;;;;;15.63;3.05;;;8.80;99.90;;;;;;5027886;28;20045;-47
2022/09/18 05:17:31;;;;;;;20.10;3.75;;;8.80;99.90;;;;;;5017234;28;20504;-46
2022/09/18 05:19:57;;;;;;;15.25;2.35;;;8.70;99.90;;;;;;5016421;28;20048;-47
2022/09/18 05:22:22;;;;;;;19.17;2.40;;;8.70;99.90;;;;;;5019793;28;20448;-47
2022/09/18 05:24:48;;;;;;;13.07;2.28;;;8.60;99.90;;;;;;5024516;28;20025;-47
2022/09/18 05:27:13;;;;;;;13.40;2.30;;;8.70;99.90;;;;;;5019559;28;20077;-47
2022/09/18 05:29:39;;;;;;;24.23;3.28;;;8.70;99.90;;;;;;5027966;28;20036;-47
2022/09/18 05:32:04;;;;;;;13.15;3.00;;;8.70;99.90;;;;;;5020453;28;20026;-46
2022/09/18 05:34:30;;;;;;;9.10;2.22;;;8.70;99.90;;;;;;5021439;28;20103;-47
2022/09/18 05:36:55;;;;;;;15.85;2.30;;;8.70;99.90;;;;;;5025788;28;20100;-46
2022/09/18 05:39:21;;;;;;;10.48;1.92;;;8.70;99.90;;;;;;5031096;28;20017;-47
2022/09/18 05:41:50;;;;;;;11.43;2.88;;;8.70;99.90;;;;;;5031019;28;20022;-48
2022/09/18 05:44:16;;;;;;;10.77;2.80;;;8.70;99.90;;;;;;5030732;28;20029;-49
2022/09/18 05:46:41;;;;;;;15.27;3.28;;;8.80;99.90;;;;;;5030754;28;20025;-47
2022/09/18 05:49:07;;;;;;;17.60;2.45;;;8.80;99.90;;;;;;5032388;28;20145;-47
2022/09/18 05:51:32;;;;;;;21.20;4.53;;;8.80;99.90;;;;;;5030923;28;20076;-47
2022/09/18 05:53:58;;;;;;;10.90;2.35;;;8.80;99.90;;;;;;5038540;28;20033;-48
2022/09/18 05:56:23;;;;;;;13.52;2.10;;;8.80;99.90;;;;;;5042997;28;20459;-47
2022/09/18 05:58:49;;;;;;;12.32;2.63;;;8.90;99.90;;;;;;5051582;28;20079;-47
2022/09/18 06:01:14;;;;;;;12.10;3.10;;;8.90;99.90;;;;;;5051583;28;20035;-46
2022/09/18 06:03:40;;;;;;;11.73;1.92;;;9.00;99.90;;;;;;5050050;28;20036;-49
2022/09/18 06:06:06;;;;;;;9.43;2.63;;;9.00;99.90;;;;;;5051866;28;20029;-47
2022/09/18 06:08:32;;;;;;;15.43;2.70;;;9.10;99.90;;;;;;5050694;28;20082;-47
2022/09/18 06:11:01;;;;;;;18.02;2.72;;;9.10;99.90;;;;;;5051065;28;20047;-47
2022/09/18 06:13:27;;;;;;;17.38;2.33;;;9.10;99.90;;;;;;5037638;28;20022;-47
2022/09/18 06:15:52;;;;;;;12.93;2.67;;;9.20;99.90;;;;;;5037805;28;20392;-46
2022/09/18 06:18:18;;;;;;;18.67;2.95;;;9.20;99.90;;;;;;5030768;28;20108;-47
2022/09/18 06:20:51;;;;;;;13.40;2.13;;;9.30;99.90;;;;;;5029798;28;20121;-46
2022/09/18 06:23:17;;;;;;;16.83;2.75;;;9.30;99.90;;;;;;5030299;28;20056;-46
2022/09/18 06:25:42;;;;;;;21.10;3.13;;;9.40;99.90;;;;;;5031263;28;20030;-57
2022/09/18 06:28:08;;;;;;;13.40;2.72;;;9.40;99.90;;;;;;5028690;28;20395;-56
2022/09/18 06:30:34;;;;;;;15.05;2.92;;;9.40;99.90;;;;;;5042812;28;20222;-56
2022/09/18 06:33:02;;;;;;;12.77;2.38;;;9.50;99.90;;;;;;5033638;28;20624;-55
2022/09/18 06:35:28;;;;;;;10.95;2.03;;;9.50;99.90;;;;;;5028540;28;20037;-55
2022/09/18 06:37:53;;;;;;;23.08;7.65;;;9.60;99.90;;;;;;5029733;28;20310;-55
2022/09/18 06:40:19;;;;;;;27.80;13.98;;;9.60;99.90;;;;;;5029824;28;20029;-55
2022/09/18 06:42:44;;;;;;;12.13;2.58;;;9.70;99.90;;;;;;5029000;28;20035;-54
2022/09/18 06:45:10;;;;;;;11.27;2.65;;;9.70;99.90;;;;;;5036664;28;20022;-54
2022/09/18 06:47:36;;;;;;;10.40;2.38;;;9.80;99.90;;;;;;5019101;28;20096;-55
2022/09/18 06:50:01;;;;;;;10.43;2.42;;;10.00;99.90;;;;;;5024013;28;20022;-54
2022/09/18 06:52:27;;;;;;;7.57;2.03;;;10.20;99.90;;;;;;5038551;28;20036;-55
2022/09/18 06:54:52;;;;;;;8.23;2.28;;;10.30;99.90;;;;;;5050134;28;20079;-54
2022/09/18 06:57:18;;;;;;;11.52;2.17;;;10.40;99.90;;;;;;5050446;28;20032;-55
2022/09/18 06:59:43;;;;;;;9.75;2.08;;;10.50;99.90;;;;;;5046195;28;20506;-56
2022/09/18 07:02:13;;;;;;;10.50;2.33;;;10.50;99.90;;;;;;5027813;28;20057;-56
2022/09/18 07:04:39;;;;;;;8.23;1.90;;;10.50;99.90;;;;;;5018307;28;20025;-56
2022/09/18 07:07:06;;;;;;;12.52;1.90;;;10.50;99.90;;;;;;5028601;28;20030;-56
2022/09/18 07:09:31;;;;;;;7.28;1.50;;;10.60;99.90;;;;;;5046869;28;20021;-53
2022/09/18 07:11:57;;;;;;;6.35;2.03;;;10.60;99.90;;;;;;5010137;28;20133;-56
2022/09/18 07:14:23;;;;;;;13.70;1.80;;;10.70;99.90;;;;;;5011241;28;20128;-58
2022/09/18 07:16:48;;;;;;;5.72;1.70;;;10.70;99.90;;;;;;5030231;28;20032;-55
2022/09/18 07:19:13;;;;;;;13.02;3.08;;;10.80;99.90;;;;;;5026114;28;20042;-56
2022/09/18 07:21:39;;;;;;;11.45;2.55;;;10.90;99.90;;;;;;5009460;28;20092;-56
2022/09/18 07:24:05;;;;;;;11.00;2.13;;;11.00;99.90;;;;;;5010252;28;20097;-56
2022/09/18 07:26:30;;;;;;;16.48;2.55;;;10.90;99.90;;;;;;5010259;28;20028;-55
2022/09/18 07:28:56;;;;;;;8.77;2.10;;;11.00;99.90;;;;;;5010070;28;20062;-55
2022/09/18 07:31:21;;;;;;;10.82;2.60;;;11.10;99.90;;;;;;5010312;28;20030;-56
2022/09/18 07:33:52;;;;;;;8.85;1.70;;;11.10;99.90;;;;;;5009633;28;20044;-55
2022/09/18 07:36:18;;;;;;;12.15;2.65;;;11.30;99.90;;;;;;5010123;28;20018;-54
2022/09/18 07:38:43;;;;;;;14.45;1.92;;;11.50;99.90;;;;;;5010628;28;20033;-55
2022/09/18 07:41:09;;;;;;;11.43;2.45;;;11.70;99.90;;;;;;5009726;28;20105;-56
2022/09/18 07:43:35;;;;;;;5.70;1.60;;;11.80;99.90;;;;;;5009411;28;20057;-54
2022/09/18 07:46:01;;;;;;;10.10;2.20;;;11.90;99.90;;;;;;5009460;28;20392;-54
2022/09/18 07:48:27;;;;;;;9.82;2.38;;;12.00;99.90;;;;;;5009642;28;20033;-54
2022/09/18 07:50:56;;;;;;;11.48;2.70;;;12.00;99.90;;;;;;5009975;28;20030;-55
2022/09/18 07:53:23;;;;;;;7.40;2.10;;;12.00;99.90;;;;;;5009242;28;20492;-55
2022/09/18 07:55:48;;;;;;;11.25;2.00;;;11.90;99.90;;;;;;5009975;28;20443;-54
2022/09/18 07:58:14;;;;;;;9.18;1.70;;;12.00;99.90;;;;;;5008621;28;20036;-55
2022/09/18 08:00:39;;;;;;;8.15;1.75;;;12.10;99.90;;;;;;5009851;28;20049;-55
2022/09/18 08:03:10;;;;;;;8.35;1.90;;;12.10;99.90;;;;;;5009150;28;20112;-56
2022/09/18 08:05:36;;;;;;;9.73;2.13;;;12.20;99.90;;;;;;5009697;28;20113;-55
2022/09/18 08:08:14;;;;;;;8.77;2.53;;;12.30;99.90;;;;;;5009535;28;20022;-55
2022/09/18 08:10:42;;;;;;;8.63;2.53;;;12.50;99.90;;;;;;5009624;28;20076;-55
2022/09/18 08:13:08;;;;;;;7.85;1.85;;;12.70;99.90;;;;;;5008823;28;20488;-55
2022/09/18 08:15:36;;;;;;;6.82;1.88;;;13.10;99.90;;;;;;5009675;28;20541;-56
2022/09/18 08:18:02;;;;;;;6.13;2.00;;;13.90;99.90;;;;;;5009369;28;20025;-56
2022/09/18 08:20:28;;;;;;;10.48;2.42;;;14.70;99.90;;;;;;5008046;28;20108;-55
2022/09/18 08:22:54;;;;;;;7.13;2.13;;;15.10;99.90;;;;;;5008678;28;20104;-56
2022/09/18 08:25:20;;;;;;;12.02;2.22;;;15.50;99.90;;;;;;5009134;28;20026;-56
2022/09/18 08:27:45;;;;;;;7.15;1.90;;;16.10;99.90;;;;;;5009158;28;20073;-56
2022/09/18 08:30:16;;;;;;;11.88;2.40;;;16.00;99.90;;;;;;5009413;28;20030;-55
2022/09/18 08:32:42;;;;;;;9.23;1.88;;;15.80;99.90;;;;;;5009252;28;20021;-55
2022/09/18 08:35:09;;;;;;;10.63;2.05;;;15.40;99.90;;;;;;5008267;28;20116;-55
2022/09/18 08:37:35;;;;;;;14.23;2.67;;;15.20;99.90;;;;;;5009455;28;20050;-56
2022/09/18 08:40:02;;;;;;;9.02;2.10;;;14.70;99.90;;;;;;5009093;28;20045;-55
2022/09/18 08:42:37;;;;;;;9.13;2.65;;;14.30;99.90;;;;;;5008359;28;20030;-55
2022/09/18 08:45:14;;;;;;;9.77;2.63;;;14.00;99.90;;;;;;5009428;28;20037;-56
2022/09/18 08:47:49;;;;;;;9.82;2.55;;;13.90;99.90;;;;;;5008992;28;20033;-55
2022/09/18 08:50:19;;;;;;;10.77;2.38;;;14.10;99.90;;;;;;5008873;28;20026;-56
2022/09/18 08:52:49;;;;;;;11.98;2.47;;;15.50;99.90;;;;;;5008730;28;20033;-56
2022/09/18 08:55:22;;;;;;;8.88;2.55;;;16.10;99.90;;;;;;5008926;28;20265;-56
2022/09/18 08:58:13;;;;;;;9.05;2.08;;;16.50;99.90;;;;;;5009146;28;20022;-57
2022/09/18 09:00:58;;;;;;;8.23;1.83;;;16.10;99.90;;;;;;5008071;28;20038;-55
2022/09/18 09:03:43;;;;;;;10.02;2.08;;;16.70;99.90;;;;;;5008392;28;20037;-56
2022/09/18 09:06:51;;;;;;;5.97;2.13;;;17.20;99.90;;;;;;5012804;28;20072;-55
2022/09/18 09:09:41;;;;;;;11.93;2.08;;;18.00;99.50;;;;;;5012744;28;20022;-55
2022/09/18 09:12:37;;;;;;;8.23;2.03;;;18.90;98.00;;;;;;5013070;28;20617;-56
2022/09/18 09:15:09;;;;;;;5.90;1.60;;;19.40;95.40;;;;;;5011520;28;20387;-56
2022/09/18 09:18:06;;;;;;;10.90;1.90;;;19.30;96.10;;;;;;5012771;28;20097;-55
2022/09/18 09:20:52;;;;;;;6.55;1.88;;;19.90;93.60;;;;;;5012568;28;20562;-56
2022/09/18 09:23:50;;;;;;;6.38;1.70;;;19.10;93.80;;;;;;5012225;28;20495;-56
2022/09/18 09:26:21;;;;;;;8.30;1.83;;;18.60;93.70;;;;;;5011753;28;20042;-56
2022/09/18 09:28:58;;;;;;;9.95;1.60;;;18.70;93.10;;;;;;5012471;28;20064;-56
2022/09/18 09:31:28;;;;;;;8.00;1.83;;;18.50;93.70;;;;;;5011394;28;20072;-56
2022/09/18 09:34:17;;;;;;;4.67;1.50;;;18.50;93.70;;;;;;5011839;28;20075;-56
2022/09/18 09:36:47;;;;;;;5.95;1.45;;;19.00;93.20;;;;;;5012388;28;20623;-57
2022/09/18 09:39:23;;;;;;;7.65;1.70;;;19.40;92.00;;;;;;5012220;28;20022;-57
2022/09/18 09:42:02;;;;;;;3.97;1.55;;;20.20;91.80;;;;;;5012260;28;20030;-57
2022/09/18 09:44:37;;;;;;;7.15;1.30;;;21.00;87.40;;;;;;5011585;28;20022;-56
2022/09/18 09:47:23;;;;;;;3.80;1.15;;;22.30;80.50;;;;;;5012089;28;20022;-56
2022/09/18 09:50:25;;;;;;;4.50;1.50;;;21.40;82.50;;;;;;5010707;28;20135;-55
2022/09/18 09:52:56;;;;;;;5.65;1.40;;;20.90;83.90;;;;;;5010135;28;20045;-55
2022/09/18 09:55:42;;;;;;;6.93;1.40;;;19.70;85.60;;;;;;5012279;28;20033;-56
2022/09/18 09:58:20;;;;;;;4.00;1.50;;;20.10;85.10;;;;;;5011828;28;20014;-55
2022/09/18 10:00:55;;;;;;;4.95;1.48;;;19.80;87.00;;;;;;5011798;28;20315;-55
2022/09/18 10:03:49;;;;;;;3.13;1.38;;;20.90;83.00;;;;;;5011269;28;20037;-55
2022/09/18 10:06:39;;;;;;;5.25;1.13;;;21.40;83.40;;;;;;5011731;28;20026;-55
2022/09/18 10:09:14;;;;;;;6.23;1.57;;;22.20;78.60;;;;;;5011994;28;20113;-55
2022/09/18 10:11:42;;;;;;;6.03;1.42;;;21.50;80.90;;;;;;5011573;28;20034;-55
2022/09/18 10:14:19;;;;;;;4.35;1.42;;;22.00;81.40;;;;;;5011234;28;20018;-56
2022/09/18 10:16:49;;;;;;;3.83;1.33;;;22.10;77.10;;;;;;5011700;28;20026;-55
2022/09/18 10:19:18;;;;;;;3.73;1.33;;;21.00;79.60;;;;;;5011516;28;20269;-56
2022/09/18 10:21:45;;;;;;;4.57;1.70;;;19.40;81.70;;;;;;5011603;28;20040;-55
2022/09/18 10:24:14;;;;;;;3.50;1.00;;;18.60;85.60;;;;;;5010032;28;20404;-55
2022/09/18 10:26:48;;;;;;;2.83;1.05;;;19.10;88.00;;;;;;5011352;28;20030;-56
2022/09/18 10:29:16;;;;;;;5.95;1.17;;;18.90;86.20;;;;;;5011147;28;20036;-55
2022/09/18 10:31:47;;;;;;;5.57;1.55;;;18.90;89.20;;;;;;5011071;28;20022;-55
2022/09/18 10:34:44;;;;;;;4.70;1.30;;;19.20;88.20;;;;;;5010530;28;20435;-57
2022/09/18 10:37:29;;;;;;;4.63;1.48;;;18.80;86.60;;;;;;5011605;28;20030;-55
2022/09/18 10:39:58;;;;;;;5.30;1.25;;;18.00;88.90;;;;;;5009956;28;20026;-55
2022/09/18 10:42:26;;;;;;;4.65;1.30;;;19.10;87.40;;;;;;5010643;28;20097;-56
2022/09/18 10:44:56;;;;;;;7.20;1.58;;;19.00;86.30;;;;;;5011015;28;20053;-55
2022/09/18 10:47:25;;;;;;;4.90;2.17;;;20.10;83.90;;;;;;5011251;28;20029;-56
2022/09/18 10:49:58;;;;;;;3.22;1.48;;;19.80;83.90;;;;;;5011044;28;20503;-56
2022/09/18 10:52:40;;;;;;;4.15;1.63;;;19.70;82.70;;;;;;5010283;28;20030;-56
2022/09/18 10:55:08;;;;;;;7.07;1.48;;;18.90;83.20;;;;;;5010884;28;20215;-55
2022/09/18 10:57:58;;;;;;;3.63;1.20;;;18.60;88.30;;;;;;5011198;28;20152;-55
2022/09/18 11:00:23;;;;;;;6.75;1.42;;;19.60;85.10;;;;;;5009424;28;20502;-55
2022/09/18 11:03:29;;;;;;;4.22;1.30;;;19.50;83.40;;;;;;5010118;28;20097;-55
2022/09/18 11:05:58;;;;;;;4.18;1.27;;;19.10;86.10;;;;;;5010827;28;20121;-55
2022/09/18 11:08:29;;;;;;;6.07;1.30;;;18.10;91.10;;;;;;5009641;28;20481;-56
2022/09/18 11:11:04;;;;;;;5.57;1.48;;;17.20;92.60;;;;;;5010466;28;20034;-55
2022/09/18 11:13:31;;;;;;;7.68;2.03;;;16.50;94.50;;;;;;5010205;28;20057;-55
2022/09/18 11:16:01;;;;;;;10.02;1.40;;;15.70;96.50;;;;;;5008994;28;20022;-55
2022/09/18 11:18:29;;;;;;;6.35;1.70;;;16.00;98.90;;;;;;5010372;28;20022;-54
2022/09/18 11:20:56;;;;;;;5.45;1.63;;;15.70;97.10;;;;;;5010504;28;20121;-54
2022/09/18 11:23:26;;;;;;;5.45;1.60;;;15.30;98.70;;;;;;5009963;28;20109;-55
2022/09/18 11:26:19;;;;;;;5.72;1.17;;;16.30;99.30;;;;;;5010352;28;20041;-56
2022/09/18 11:29:20;;;;;;;10.60;1.40;;;17.10;96.50;;;;;;5009668;28;20030;-56
2022/09/18 11:31:47;;;;;;;3.88;1.58;;;18.00;96.00;;;;;;5010193;28;20065;-55
2022/09/18 11:34:35;;;;;;;3.85;1.55;;;18.20;94.70;;;;;;5009964;28;20021;-56
2022/09/18 11:37:33;;;;;;;6.80;1.42;;;18.30;94.10;;;;;;5010078;28;20018;-55
2022/09/18 11:40:04;;;;;;;3.70;1.40;;;17.60;93.70;;;;;;4998367;28;20476;-56
2022/09/18 11:42:31;;;;;;;9.35;2.90;;;17.10;93.60;;;;;;5008344;28;20561;-55
2022/09/18 11:45:27;;;;;;;8.55;2.90;;;16.30;94.60;;;;;;5009842;28;20026;-55
2022/09/18 11:48:06;;;;;;;4.65;1.20;;;15.90;97.50;;;;;;5009737;28;20104;-55
2022/09/18 11:50:34;;;;;;;4.93;1.60;;;15.60;96.60;;;;;;5010201;28;20392;-55
2022/09/18 11:53:07;;;;;;;3.92;1.20;;;15.30;96.20;;;;;;5007969;28;20388;-55
2022/09/18 11:55:51;;;;;;;4.85;1.77;;;15.00;96.80;;;;;;5009666;28;20380;-55
2022/09/18 11:58:35;;;;;;;3.05;1.17;;;14.80;96.70;;;;;;5009673;28;20018;-55
2022/09/18 12:01:26;;;;;;;5.47;1.17;;;14.40;98.80;;;;;;5008551;28;20022;-55
2022/09/18 12:04:00;;;;;;;6.68;1.10;;;14.00;99.90;;;;;;5009033;28;20036;-55
2022/09/18 12:06:45;;;;;;;2.63;0.93;;;13.20;99.90;;;;;;5008573;28;20484;-54
2022/09/18 12:09:20;;;;;;;5.10;1.30;;;12.20;99.90;;;;;;5009514;28;20049;-55
2022/09/18 12:12:03;;;;;;;2.53;1.13;;;11.50;99.90;;;;;;5009550;28;20088;-55
2022/09/18 12:14:39;;;;;;;3.42;1.02;;;11.00;99.90;;;;;;5008957;28;20032;-55
2022/09/18 12:17:35;;;;;;;3.00;1.13;;;10.70;99.90;;;;;;5009393;28;20040;-55
2022/09/18 12:20:09;;;;;;;4.65;0.82;;;10.40;99.90;;;;;;5009143;28;20095;-55
2022/09/18 12:22:42;;;;;;;3.08;1.00;;;10.30;99.90;;;;;;5007605;28;20034;-55
2022/09/18 12:25:13;;;;;;;3.70;1.02;;;10.10;99.90;;;;;;5009369;28;20033;-55
2022/09/18 12:27:51;;;;;;;4.40;1.27;;;10.10;99.90;;;;;;5009146;28;20022;-55
2022/09/18 12:30:19;;;;;;;2.63;1.00;;;10.10;99.90;;;;;;5008045;28;20060;-55
2022/09/18 12:32:57;;;;;;;1.90;0.75;;;9.90;99.90;;;;;;5008577;28;20032;-55
2022/09/18 12:35:39;;;;;;;3.67;0.98;;;9.90;99.90;;;;;;5009042;28;20472;-55
2022/09/18 12:38:25;;;;;;;3.47;1.17;;;9.70;99.90;;;;;;5009054;28;20061;-54
2022/09/18 12:41:09;;;;;;;6.13;1.25;;;9.60;99.90;;;;;;5008590;28;20026;-54
2022/09/18 12:43:41;;;;;;;4.78;1.35;;;9.60;99.90;;;;;;5008665;28;20032;-55
2022/09/18 12:46:26;;;;;;;4.75;1.63;;;9.60;99.90;;;;;;5008936;28;20030;-55
2022/09/18 12:49:10;;;;;;;4.40;1.20;;;9.80;99.90;;;;;;5009035;28;20496;-54
2022/09/18 12:51:43;;;;;;;3.22;1.13;;;9.90;99.90;;;;;;5008870;28;20029;-54
2022/09/18 12:54:31;;;;;;;5.65;1.80;;;10.20;99.90;;;;;;5008448;28;20065;-55
2022/09/18 12:57:16;;;;;;;4.72;1.30;;;10.40;99.90;;;;;;5008796;28;20449;-55
2022/09/18 12:59:47;;;;;;;3.95;1.10;;;10.70;99.90;;;;;;5007633;28;20022;-56
2022/09/18 13:02:41;;;;;;;2.72;0.73;;;11.00;99.90;;;;;;5008749;28;20036;-56
2022/09/18 13:05:24;;;;;;;6.63;1.13;;;11.10;99.90;;;;;;5008810;28;20029;-56
2022/09/18 13:08:10;;;;;;;1.67;1.10;;;11.40;99.90;;;;;;5008844;28;20026;-56
2022/09/18 13:10:44;;;;;;;3.10;0.80;;;11.70;99.90;;;;;;5009020;28;20022;-56